Stoutland, Missouri
Current Conditions -  °F | °C
As of 12:55 AM on Sunday 21 Dec 2014 (Local Time) from KH21 Reporting Station
Overcast Overcast  
Wind Chill: 38°   Ceiling: 2100
Heat Index: 41°   Visibility: 10mi
Dew Point: 36°   Wind: 5mph
Humidity: 81%   Direction: 150°SSE
Pressure: 30.18"   Gusts: NA
Location:  37.81°N, 92.51°W
Report Text: KH21 210655Z AUTO 15004KT 10SM OVC021 05/02 A3018 RMK AO2
Loading
Personal Weather Stations






























Interactive Weather Map New forecast layout! Learn more

10-Day Weather Forecast

Advertisements
Track Severe Weather on mobile